sensor_id;sensor_type;location;lat;lon;timestamp;temperature;humidity
44833;DHT22;30569;51.252;9.830;2023-09-30T00:06:49;15.30;99.90
44833;DHT22;30569;51.252;9.830;2023-09-30T00:09:15;15.30;99.90
44833;DHT22;30569;51.252;9.830;2023-09-30T00:11:40;15.30;99.90
44833;DHT22;30569;51.252;9.830;2023-09-30T00:16:32;15.10;99.90
44833;DHT22;30569;51.252;9.830;2023-09-30T00:18:58;15.00;99.90
44833;DHT22;30569;51.252;9.830;2023-09-30T00:21:24;14.90;99.90
44833;DHT22;30569;51.252;9.830;2023-09-30T00:23:49;14.80;99.90
44833;DHT22;30569;51.252;9.830;2023-09-30T00:26:15;14.80;99.90
44833;DHT22;30569;51.252;9.830;2023-09-30T00:31:07;14.80;99.90
44833;DHT22;30569;51.252;9.830;2023-09-30T00:36:07;14.70;99.90
44833;DHT22;30569;51.252;9.830;2023-09-30T00:40:58;14.60;99.90
44833;DHT22;30569;51.252;9.830;2023-09-30T00:43:24;14.10;99.90
44833;DHT22;30569;51.252;9.830;2023-09-30T00:45:57;14.10;99.90
44833;DHT22;30569;51.252;9.830;2023-09-30T00:50:52;14.10;99.90
44833;DHT22;30569;51.252;9.830;2023-09-30T00:58:11;13.90;99.90
44833;DHT22;30569;51.252;9.830;2023-09-30T01:03:03;13.60;99.90
44833;DHT22;30569;51.252;9.830;2023-09-30T01:05:30;13.60;99.90
44833;DHT22;30569;51.252;9.830;2023-09-30T01:12:48;13.30;99.90
44833;DHT22;30569;51.252;9.830;2023-09-30T01:20:05;13.10;99.90
44833;DHT22;30569;51.252;9.830;2023-09-30T01:22:33;13.00;99.90
44833;DHT22;30569;51.252;9.830;2023-09-30T01:24:58;12.90;99.90
44833;DHT22;30569;51.252;9.830;2023-09-30T01:27:24;13.00;99.90
44833;DHT22;30569;51.252;9.830;2023-09-30T01:29:51;13.00;99.90
44833;DHT22;30569;51.252;9.830;2023-09-30T01:32:16;13.10;99.90
44833;DHT22;30569;51.252;9.830;2023-09-30T01:34:42;13.10;99.90
44833;DHT22;30569;51.252;9.830;2023-09-30T01:37:07;13.10;99.90
44833;DHT22;30569;51.252;9.830;2023-09-30T01:39:33;13.20;99.90
44833;DHT22;30569;51.252;9.830;2023-09-30T01:41:59;13.20;99.90
44833;DHT22;30569;51.252;9.830;2023-09-30T01:49:17;13.20;99.90
44833;DHT22;30569;51.252;9.830;2023-09-30T01:51:43;13.20;99.90
44833;DHT22;30569;51.252;9.830;2023-09-30T01:54:09;13.10;99.90
44833;DHT22;30569;51.252;9.830;2023-09-30T01:56:36;13.10;99.90
44833;DHT22;30569;51.252;9.830;2023-09-30T01:59:01;13.10;99.90
44833;DHT22;30569;51.252;9.830;2023-09-30T02:01:27;13.10;99.90
44833;DHT22;30569;51.252;9.830;2023-09-30T02:25:51;12.80;99.90
44833;DHT22;30569;51.252;9.830;2023-09-30T02:38:00;12.60;99.90
44833;DHT22;30569;51.252;9.830;2023-09-30T02:42:51;12.60;99.90
44833;DHT22;30569;51.252;9.830;2023-09-30T02:50:10;12.60;99.90
44833;DHT22;30569;51.252;9.830;2023-09-30T02:52:39;12.50;99.90
44833;DHT22;30569;51.252;9.830;2023-09-30T02:55:07;12.50;99.90
44833;DHT22;30569;51.252;9.830;2023-09-30T02:57:33;12.50;99.90
44833;DHT22;30569;51.252;9.830;2023-09-30T02:59:58;12.50;99.90
44833;DHT22;30569;51.252;9.830;2023-09-30T03:02:25;12.50;99.90
44833;DHT22;30569;51.252;9.830;2023-09-30T03:04:51;12.50;99.90
44833;DHT22;30569;51.252;9.830;2023-09-30T03:07:19;12.40;99.90
44833;DHT22;30569;51.252;9.830;2023-09-30T03:09:45;12.40;99.90
44833;DHT22;30569;51.252;9.830;2023-09-30T03:12:12;12.50;99.90
44833;DHT22;30569;51.252;9.830;2023-09-30T03:14:37;12.40;99.90
44833;DHT22;30569;51.252;9.830;2023-09-30T03:17:03;12.40;99.90
44833;DHT22;30569;51.252;9.830;2023-09-30T03:19:29;12.30;99.90
44833;DHT22;30569;51.252;9.830;2023-09-30T03:21:54;12.30;99.90
44833;DHT22;30569;51.252;9.830;2023-09-30T03:24:20;12.30;99.90
44833;DHT22;30569;51.252;9.830;2023-09-30T03:29:12;12.30;99.90
44833;DHT22;30569;51.252;9.830;2023-09-30T03:34:05;12.20;99.90
44833;DHT22;30569;51.252;9.830;2023-09-30T03:36:31;12.20;99.90
44833;DHT22;30569;51.252;9.830;2023-09-30T03:38:58;12.30;99.90
44833;DHT22;30569;51.252;9.830;2023-09-30T03:43:56;12.30;99.90
44833;DHT22;30569;51.252;9.830;2023-09-30T03:46:22;12.30;99.90
44833;DHT22;30569;51.252;9.830;2023-09-30T03:48:48;12.30;99.90
44833;DHT22;30569;51.252;9.830;2023-09-30T03:51:14;12.40;99.90
44833;DHT22;30569;51.252;9.830;2023-09-30T03:53:44;12.40;99.90
44833;DHT22;30569;51.252;9.830;2023-09-30T03:58:42;12.40;99.90
44833;DHT22;30569;51.252;9.830;2023-09-30T04:03:39;12.50;99.90
44833;DHT22;30569;51.252;9.830;2023-09-30T04:10:59;12.50;99.90
44833;DHT22;30569;51.252;9.830;2023-09-30T04:15:51;12.60;99.90
44833;DHT22;30569;51.252;9.830;2023-09-30T04:30:32;12.50;99.90
44833;DHT22;30569;51.252;9.830;2023-09-30T04:33:01;12.40;99.90
44833;DHT22;30569;51.252;9.830;2023-09-30T04:42:52;12.50;99.90
44833;DHT22;30569;51.252;9.830;2023-09-30T04:45:20;12.50;99.90
44833;DHT22;30569;51.252;9.830;2023-09-30T04:47:47;12.50;99.90
44833;DHT22;30569;51.252;9.830;2023-09-30T04:50:14;12.40;99.90
44833;DHT22;30569;51.252;9.830;2023-09-30T04:52:40;12.30;99.90
44833;DHT22;30569;51.252;9.830;2023-09-30T04:55:06;12.30;99.90
44833;DHT22;30569;51.252;9.830;2023-09-30T04:59:58;12.40;99.90
44833;DHT22;30569;51.252;9.830;2023-09-30T05:02:24;12.50;99.90
44833;DHT22;30569;51.252;9.830;2023-09-30T05:07:16;12.50;99.90
44833;DHT22;30569;51.252;9.830;2023-09-30T05:09:41;12.60;99.90
44833;DHT22;30569;51.252;9.830;2023-09-30T05:12:08;12.60;99.90
44833;DHT22;30569;51.252;9.830;2023-09-30T05:16:59;12.60;99.90
44833;DHT22;30569;51.252;9.830;2023-09-30T05:19:25;12.60;99.90
44833;DHT22;30569;51.252;9.830;2023-09-30T05:21:51;12.60;99.90
44833;DHT22;30569;51.252;9.830;2023-09-30T05:24:17;12.50;99.90
44833;DHT22;30569;51.252;9.830;2023-09-30T05:29:10;12.50;99.90
44833;DHT22;30569;51.252;9.830;2023-09-30T05:34:02;12.50;99.90
44833;DHT22;30569;51.252;9.830;2023-09-30T05:36:28;12.60;99.90
44833;DHT22;30569;51.252;9.830;2023-09-30T05:51:05;12.70;99.90
44833;DHT22;30569;51.252;9.830;2023-09-30T05:56:01;12.70;99.90
44833;DHT22;30569;51.252;9.830;2023-09-30T05:58:26;12.80;99.90
44833;DHT22;30569;51.252;9.830;2023-09-30T06:03:19;12.80;99.90
44833;DHT22;30569;51.252;9.830;2023-09-30T06:08:14;12.80;99.90
44833;DHT22;30569;51.252;9.830;2023-09-30T06:10:43;12.90;99.90
44833;DHT22;30569;51.252;9.830;2023-09-30T06:13:10;13.00;99.90
44833;DHT22;30569;51.252;9.830;2023-09-30T06:15:40;12.90;99.90
44833;DHT22;30569;51.252;9.830;2023-09-30T06:30:21;13.50;99.90
44833;DHT22;30569;51.252;9.830;2023-09-30T06:32:47;13.60;99.90
44833;DHT22;30569;51.252;9.830;2023-09-30T06:35:13;13.60;99.90
44833;DHT22;30569;51.252;9.830;2023-09-30T06:37:40;13.70;99.90
44833;DHT22;30569;51.252;9.830;2023-09-30T06:40:10;13.60;99.90
44833;DHT22;30569;51.252;9.830;2023-09-30T06:45:07;13.80;99.90
44833;DHT22;30569;51.252;9.830;2023-09-30T06:47:33;13.90;99.90
44833;DHT22;30569;51.252;9.830;2023-09-30T06:50:00;13.90;99.90
44833;DHT22;30569;51.252;9.830;2023-09-30T06:52:36;14.00;99.90
44833;DHT22;30569;51.252;9.830;2023-09-30T06:55:03;14.00;99.90
44833;DHT22;30569;51.252;9.830;2023-09-30T06:57:37;13.90;99.90
44833;DHT22;30569;51.252;9.830;2023-09-30T07:00:10;13.70;99.90
44833;DHT22;30569;51.252;9.830;2023-09-30T07:02:37;14.00;99.90
44833;DHT22;30569;51.252;9.830;2023-09-30T07:05:14;14.00;99.90
44833;DHT22;30569;51.252;9.830;2023-09-30T07:07:40;14.10;99.90
44833;DHT22;30569;51.252;9.830;2023-09-30T07:15:05;13.90;99.90
44833;DHT22;30569;51.252;9.830;2023-09-30T07:17:32;14.00;99.90
44833;DHT22;30569;51.252;9.830;2023-09-30T07:19:57;14.00;99.90
44833;DHT22;30569;51.252;9.830;2023-09-30T07:24:49;14.10;99.90
44833;DHT22;30569;51.252;9.830;2023-09-30T07:27:14;14.20;99.90
44833;DHT22;30569;51.252;9.830;2023-09-30T07:29:40;14.30;99.90
44833;DHT22;30569;51.252;9.830;2023-09-30T07:32:07;14.40;99.90
44833;DHT22;30569;51.252;9.830;2023-09-30T07:46:43;13.90;99.90
44833;DHT22;30569;51.252;9.830;2023-09-30T07:49:10;13.90;99.90
44833;DHT22;30569;51.252;9.830;2023-09-30T08:06:12;14.20;99.90
44833;DHT22;30569;51.252;9.830;2023-09-30T08:11:04;14.70;99.90
44833;DHT22;30569;51.252;9.830;2023-09-30T08:13:31;15.10;99.90
44833;DHT22;30569;51.252;9.830;2023-09-30T08:25:42;15.40;99.90
44833;DHT22;30569;51.252;9.830;2023-09-30T08:28:07;15.70;99.90
44833;DHT22;30569;51.252;9.830;2023-09-30T08:30:37;16.00;99.90
44833;DHT22;30569;51.252;9.830;2023-09-30T08:33:03;16.50;99.90
44833;DHT22;30569;51.252;9.830;2023-09-30T08:35:30;16.40;99.90
44833;DHT22;30569;51.252;9.830;2023-09-30T08:37:55;16.60;99.90
44833;DHT22;30569;51.252;9.830;2023-09-30T08:40:21;16.70;99.90
44833;DHT22;30569;51.252;9.830;2023-09-30T08:42:53;16.50;99.50
44833;DHT22;30569;51.252;9.830;2023-09-30T08:45:19;16.40;99.90
44833;DHT22;30569;51.252;9.830;2023-09-30T08:50:12;15.80;99.90
44833;DHT22;30569;51.252;9.830;2023-09-30T08:52:41;16.50;99.90
44833;DHT22;30569;51.252;9.830;2023-09-30T08:55:07;16.40;99.90
44833;DHT22;30569;51.252;9.830;2023-09-30T08:57:38;16.70;98.70
44833;DHT22;30569;51.252;9.830;2023-09-30T09:00:09;16.30;98.90
44833;DHT22;30569;51.252;9.830;2023-09-30T09:02:39;17.00;99.50
44833;DHT22;30569;51.252;9.830;2023-09-30T09:05:04;17.00;98.60
44833;DHT22;30569;51.252;9.830;2023-09-30T09:10:09;17.50;98.70
44833;DHT22;30569;51.252;9.830;2023-09-30T09:12:37;18.20;96.80
44833;DHT22;30569;51.252;9.830;2023-09-30T09:15:06;21.00;97.90
44833;DHT22;30569;51.252;9.830;2023-09-30T09:17:42;18.50;96.50
44833;DHT22;30569;51.252;9.830;2023-09-30T09:20:09;18.70;95.00
44833;DHT22;30569;51.252;9.830;2023-09-30T09:22:42;21.40;90.00
44833;DHT22;30569;51.252;9.830;2023-09-30T09:25:09;22.20;88.80
44833;DHT22;30569;51.252;9.830;2023-09-30T09:27:34;25.80;81.10
44833;DHT22;30569;51.252;9.830;2023-09-30T09:30:26;27.80;71.80
44833;DHT22;30569;51.252;9.830;2023-09-30T09:35:21;29.50;64.30
44833;DHT22;30569;51.252;9.830;2023-09-30T09:38:13;32.20;61.10
44833;DHT22;30569;51.252;9.830;2023-09-30T09:40:39;32.60;59.80
44833;DHT22;30569;51.252;9.830;2023-09-30T09:45:36;34.90;55.00
44833;DHT22;30569;51.252;9.830;2023-09-30T09:48:04;31.60;58.00
44833;DHT22;30569;51.252;9.830;2023-09-30T09:50:30;30.00;58.80
44833;DHT22;30569;51.252;9.830;2023-09-30T09:52:58;30.50;58.80
44833;DHT22;30569;51.252;9.830;2023-09-30T09:55:26;31.00;59.30
44833;DHT22;30569;51.252;9.830;2023-09-30T09:57:53;30.40;60.30
44833;DHT22;30569;51.252;9.830;2023-09-30T10:00:24;27.90;64.80
44833;DHT22;30569;51.252;9.830;2023-09-30T10:02:50;26.90;66.60
44833;DHT22;30569;51.252;9.830;2023-09-30T10:05:16;25.80;68.20
44833;DHT22;30569;51.252;9.830;2023-09-30T10:10:18;25.10;70.50
44833;DHT22;30569;51.252;9.830;2023-09-30T10:18:00;24.00;71.00
44833;DHT22;30569;51.252;9.830;2023-09-30T10:20:31;23.50;73.00
44833;DHT22;30569;51.252;9.830;2023-09-30T10:25:41;22.60;76.00
44833;DHT22;30569;51.252;9.830;2023-09-30T10:28:40;23.40;76.30
44833;DHT22;30569;51.252;9.830;2023-09-30T10:31:14;21.50;77.60
44833;DHT22;30569;51.252;9.830;2023-09-30T10:39:00;20.10;85.10
44833;DHT22;30569;51.252;9.830;2023-09-30T10:46:49;19.10;81.00
44833;DHT22;30569;51.252;9.830;2023-09-30T10:49:35;19.50;85.70
44833;DHT22;30569;51.252;9.830;2023-09-30T10:52:04;19.70;80.90
44833;DHT22;30569;51.252;9.830;2023-09-30T10:54:31;20.00;83.90
44833;DHT22;30569;51.252;9.830;2023-09-30T10:56:57;21.30;80.80
44833;DHT22;30569;51.252;9.830;2023-09-30T10:59:30;20.30;84.20
44833;DHT22;30569;51.252;9.830;2023-09-30T11:04:23;20.40;84.20
44833;DHT22;30569;51.252;9.830;2023-09-30T11:09:18;20.10;81.20
44833;DHT22;30569;51.252;9.830;2023-09-30T11:11:47;22.40;82.80
44833;DHT22;30569;51.252;9.830;2023-09-30T11:14:28;19.60;81.20
44833;DHT22;30569;51.252;9.830;2023-09-30T11:16:57;19.60;81.90
44833;DHT22;30569;51.252;9.830;2023-09-30T11:19:23;20.00;85.30
44833;DHT22;30569;51.252;9.830;2023-09-30T11:21:50;19.80;86.60
44833;DHT22;30569;51.252;9.830;2023-09-30T11:24:17;19.70;77.90
